sensor_id;sensor_type;location;lat;lon;timestamp;temperature;humidity
5461;DHT22;2753;49.196;8.286;2023-03-14T00:00:45;12.20;99.90
5461;DHT22;2753;49.196;8.286;2023-03-14T00:03:11;12.20;99.90
5461;DHT22;2753;49.196;8.286;2023-03-14T00:05:36;12.20;99.90
5461;DHT22;2753;49.196;8.286;2023-03-14T00:08:02;12.10;99.90
5461;DHT22;2753;49.196;8.286;2023-03-14T00:10:28;12.10;99.90
5461;DHT22;2753;49.196;8.286;2023-03-14T00:12:53;12.10;99.90
5461;DHT22;2753;49.196;8.286;2023-03-14T00:15:19;12.10;99.90
5461;DHT22;2753;49.196;8.286;2023-03-14T00:17:45;12.10;99.90
5461;DHT22;2753;49.196;8.286;2023-03-14T00:20:11;12.10;99.90
5461;DHT22;2753;49.196;8.286;2023-03-14T00:22:38;12.10;99.90
5461;DHT22;2753;49.196;8.286;2023-03-14T00:25:05;12.10;99.90
5461;DHT22;2753;49.196;8.286;2023-03-14T00:27:31;12.10;99.90
5461;DHT22;2753;49.196;8.286;2023-03-14T00:29:57;12.10;99.90
5461;DHT22;2753;49.196;8.286;2023-03-14T00:32:23;12.10;99.90
5461;DHT22;2753;49.196;8.286;2023-03-14T00:34:49;12.10;99.90
5461;DHT22;2753;49.196;8.286;2023-03-14T00:37:15;12.10;99.90
5461;DHT22;2753;49.196;8.286;2023-03-14T00:39:40;12.10;99.90
5461;DHT22;2753;49.196;8.286;2023-03-14T00:42:06;12.10;99.90
5461;DHT22;2753;49.196;8.286;2023-03-14T00:44:32;12.10;99.90
5461;DHT22;2753;49.196;8.286;2023-03-14T00:47:00;12.10;99.90
5461;DHT22;2753;49.196;8.286;2023-03-14T00:49:26;12.10;99.90
5461;DHT22;2753;49.196;8.286;2023-03-14T00:51:52;12.10;99.90
5461;DHT22;2753;49.196;8.286;2023-03-14T00:54:19;12.10;99.90
5461;DHT22;2753;49.196;8.286;2023-03-14T00:56:45;12.10;99.90
5461;DHT22;2753;49.196;8.286;2023-03-14T00:59:10;12.10;99.90
5461;DHT22;2753;49.196;8.286;2023-03-14T01:01:37;12.10;99.90
5461;DHT22;2753;49.196;8.286;2023-03-14T01:04:03;12.10;99.90
5461;DHT22;2753;49.196;8.286;2023-03-14T01:06:29;12.10;99.90
5461;DHT22;2753;49.196;8.286;2023-03-14T01:08:56;12.00;99.90
5461;DHT22;2753;49.196;8.286;2023-03-14T01:11:30;12.10;99.90
5461;DHT22;2753;49.196;8.286;2023-03-14T01:13:56;12.00;99.90
5461;DHT22;2753;49.196;8.286;2023-03-14T01:16:23;12.00;99.90
5461;DHT22;2753;49.196;8.286;2023-03-14T01:18:50;12.00;99.90
5461;DHT22;2753;49.196;8.286;2023-03-14T01:23:47;12.00;99.90
5461;DHT22;2753;49.196;8.286;2023-03-14T01:26:14;11.90;99.90
5461;DHT22;2753;49.196;8.286;2023-03-14T01:28:41;11.90;99.90
5461;DHT22;2753;49.196;8.286;2023-03-14T01:31:09;11.90;99.90
5461;DHT22;2753;49.196;8.286;2023-03-14T01:33:35;11.90;99.90
5461;DHT22;2753;49.196;8.286;2023-03-14T01:36:02;11.90;99.90
5461;DHT22;2753;49.196;8.286;2023-03-14T01:38:32;11.90;99.90
5461;DHT22;2753;49.196;8.286;2023-03-14T01:40:58;11.90;99.90
5461;DHT22;2753;49.196;8.286;2023-03-14T01:43:25;11.90;99.90
5461;DHT22;2753;49.196;8.286;2023-03-14T01:48:51;11.80;99.90
5461;DHT22;2753;49.196;8.286;2023-03-14T01:51:56;11.80;99.90
5461;DHT22;2753;49.196;8.286;2023-03-14T01:54:52;11.80;99.90
5461;DHT22;2753;49.196;8.286;2023-03-14T01:59:49;11.70;99.90
5461;DHT22;2753;49.196;8.286;2023-03-14T02:02:17;11.70;99.90
5461;DHT22;2753;49.196;8.286;2023-03-14T02:04:43;11.80;99.90
5461;DHT22;2753;49.196;8.286;2023-03-14T02:09:55;11.80;99.90
5461;DHT22;2753;49.196;8.286;2023-03-14T02:12:22;11.70;99.90
5461;DHT22;2753;49.196;8.286;2023-03-14T02:14:47;11.70;99.90
5461;DHT22;2753;49.196;8.286;2023-03-14T02:17:15;11.70;99.90
5461;DHT22;2753;49.196;8.286;2023-03-14T02:20:08;11.70;99.90
5461;DHT22;2753;49.196;8.286;2023-03-14T02:22:37;11.70;99.90
5461;DHT22;2753;49.196;8.286;2023-03-14T02:27:44;11.60;99.90
5461;DHT22;2753;49.196;8.286;2023-03-14T02:30:17;11.60;99.90
5461;DHT22;2753;49.196;8.286;2023-03-14T02:32:46;11.60;99.90
5461;DHT22;2753;49.196;8.286;2023-03-14T02:35:15;11.50;99.90
5461;DHT22;2753;49.196;8.286;2023-03-14T02:40:31;11.60;99.90
5461;DHT22;2753;49.196;8.286;2023-03-14T02:42:57;11.50;99.90
5461;DHT22;2753;49.196;8.286;2023-03-14T02:47:55;11.60;99.90
5461;DHT22;2753;49.196;8.286;2023-03-14T02:50:26;11.50;99.90
5461;DHT22;2753;49.196;8.286;2023-03-14T02:52:54;11.50;99.90
5461;DHT22;2753;49.196;8.286;2023-03-14T02:55:21;11.50;99.90
5461;DHT22;2753;49.196;8.286;2023-03-14T02:57:47;11.40;99.90
5461;DHT22;2753;49.196;8.286;2023-03-14T03:00:13;11.40;99.90
5461;DHT22;2753;49.196;8.286;2023-03-14T03:02:39;11.40;99.90
5461;DHT22;2753;49.196;8.286;2023-03-14T03:05:04;11.40;99.90
5461;DHT22;2753;49.196;8.286;2023-03-14T03:07:30;11.40;99.90
5461;DHT22;2753;49.196;8.286;2023-03-14T03:09:56;11.40;99.90
5461;DHT22;2753;49.196;8.286;2023-03-14T03:12:21;11.40;99.90
5461;DHT22;2753;49.196;8.286;2023-03-14T03:14:47;11.40;99.90
5461;DHT22;2753;49.196;8.286;2023-03-14T03:17:13;11.40;99.90
5461;DHT22;2753;49.196;8.286;2023-03-14T03:19:38;11.30;99.90
5461;DHT22;2753;49.196;8.286;2023-03-14T03:22:04;11.30;99.90
5461;DHT22;2753;49.196;8.286;2023-03-14T03:24:29;11.30;99.90
5461;DHT22;2753;49.196;8.286;2023-03-14T03:26:55;11.30;99.90
5461;DHT22;2753;49.196;8.286;2023-03-14T03:29:21;11.20;99.90
5461;DHT22;2753;49.196;8.286;2023-03-14T03:31:47;11.20;99.90
5461;DHT22;2753;49.196;8.286;2023-03-14T03:34:13;11.30;99.90
5461;DHT22;2753;49.196;8.286;2023-03-14T03:36:39;11.20;99.90
5461;DHT22;2753;49.196;8.286;2023-03-14T03:39:05;11.20;99.90
5461;DHT22;2753;49.196;8.286;2023-03-14T03:41:31;11.20;99.90
5461;DHT22;2753;49.196;8.286;2023-03-14T03:43:57;11.10;99.90
5461;DHT22;2753;49.196;8.286;2023-03-14T03:46:23;11.10;99.90
5461;DHT22;2753;49.196;8.286;2023-03-14T03:48:57;11.10;99.90
5461;DHT22;2753;49.196;8.286;2023-03-14T03:51:23;11.10;99.90
5461;DHT22;2753;49.196;8.286;2023-03-14T03:53:48;11.00;99.90
5461;DHT22;2753;49.196;8.286;2023-03-14T03:56:14;11.10;99.90
5461;DHT22;2753;49.196;8.286;2023-03-14T03:58:40;11.10;99.90
5461;DHT22;2753;49.196;8.286;2023-03-14T04:01:07;11.10;99.90
5461;DHT22;2753;49.196;8.286;2023-03-14T04:03:34;11.10;99.90
5461;DHT22;2753;49.196;8.286;2023-03-14T04:06:01;11.10;99.90
5461;DHT22;2753;49.196;8.286;2023-03-14T04:08:28;11.00;99.90
5461;DHT22;2753;49.196;8.286;2023-03-14T04:10:56;11.00;99.90
5461;DHT22;2753;49.196;8.286;2023-03-14T04:13:22;11.00;99.90
5461;DHT22;2753;49.196;8.286;2023-03-14T04:15:48;11.10;99.90
5461;DHT22;2753;49.196;8.286;2023-03-14T04:18:13;11.10;99.90
5461;DHT22;2753;49.196;8.286;2023-03-14T04:20:39;11.10;99.90
5461;DHT22;2753;49.196;8.286;2023-03-14T04:23:04;11.10;99.90
5461;DHT22;2753;49.196;8.286;2023-03-14T04:25:30;11.00;99.90
5461;DHT22;2753;49.196;8.286;2023-03-14T04:27:56;11.00;99.90
5461;DHT22;2753;49.196;8.286;2023-03-14T04:30:21;11.00;99.90
5461;DHT22;2753;49.196;8.286;2023-03-14T04:32:47;11.00;99.90
5461;DHT22;2753;49.196;8.286;2023-03-14T04:35:13;11.00;99.90
5461;DHT22;2753;49.196;8.286;2023-03-14T04:37:39;11.00;99.90
5461;DHT22;2753;49.196;8.286;2023-03-14T04:40:07;10.90;99.90
5461;DHT22;2753;49.196;8.286;2023-03-14T04:42:34;10.90;99.90
5461;DHT22;2753;49.196;8.286;2023-03-14T04:44:59;10.90;99.90
5461;DHT22;2753;49.196;8.286;2023-03-14T04:47:26;10.90;99.90
5461;DHT22;2753;49.196;8.286;2023-03-14T04:49:51;10.90;99.90
5461;DHT22;2753;49.196;8.286;2023-03-14T04:52:17;10.80;99.90
5461;DHT22;2753;49.196;8.286;2023-03-14T04:54:43;10.80;99.90
5461;DHT22;2753;49.196;8.286;2023-03-14T04:57:08;10.80;99.90
5461;DHT22;2753;49.196;8.286;2023-03-14T04:59:34;10.80;99.90
5461;DHT22;2753;49.196;8.286;2023-03-14T05:02:00;10.80;99.90
5461;DHT22;2753;49.196;8.286;2023-03-14T05:04:25;10.80;99.90
5461;DHT22;2753;49.196;8.286;2023-03-14T05:06:51;10.80;99.90
5461;DHT22;2753;49.196;8.286;2023-03-14T05:09:17;10.80;99.90
5461;DHT22;2753;49.196;8.286;2023-03-14T05:11:43;10.80;99.90
5461;DHT22;2753;49.196;8.286;2023-03-14T05:14:09;10.80;99.90
5461;DHT22;2753;49.196;8.286;2023-03-14T05:16:34;10.80;99.90
5461;DHT22;2753;49.196;8.286;2023-03-14T05:19:00;10.80;99.90
5461;DHT22;2753;49.196;8.286;2023-03-14T05:21:27;10.80;99.90
5461;DHT22;2753;49.196;8.286;2023-03-14T05:23:52;10.80;99.90
5461;DHT22;2753;49.196;8.286;2023-03-14T05:26:18;10.80;99.90
5461;DHT22;2753;49.196;8.286;2023-03-14T05:28:44;10.80;99.90
5461;DHT22;2753;49.196;8.286;2023-03-14T05:31:10;10.80;99.90
5461;DHT22;2753;49.196;8.286;2023-03-14T05:33:35;10.80;99.90
5461;DHT22;2753;49.196;8.286;2023-03-14T05:36:01;10.80;99.90
5461;DHT22;2753;49.196;8.286;2023-03-14T05:38:27;10.80;99.90
5461;DHT22;2753;49.196;8.286;2023-03-14T05:40:53;10.80;99.90
5461;DHT22;2753;49.196;8.286;2023-03-14T05:43:19;10.70;99.90
5461;DHT22;2753;49.196;8.286;2023-03-14T05:45:44;10.70;99.90
5461;DHT22;2753;49.196;8.286;2023-03-14T05:48:10;10.70;99.90
5461;DHT22;2753;49.196;8.286;2023-03-14T05:50:36;10.70;99.90
5461;DHT22;2753;49.196;8.286;2023-03-14T05:53:02;10.70;99.90
5461;DHT22;2753;49.196;8.286;2023-03-14T05:55:28;10.70;99.90
5461;DHT22;2753;49.196;8.286;2023-03-14T05:57:54;10.70;99.90
5461;DHT22;2753;49.196;8.286;2023-03-14T06:00:20;10.70;99.90
5461;DHT22;2753;49.196;8.286;2023-03-14T06:02:46;10.70;99.90
5461;DHT22;2753;49.196;8.286;2023-03-14T06:05:12;10.70;99.90
5461;DHT22;2753;49.196;8.286;2023-03-14T06:07:38;10.70;99.90
5461;DHT22;2753;49.196;8.286;2023-03-14T06:10:04;10.70;99.90
5461;DHT22;2753;49.196;8.286;2023-03-14T06:12:30;10.70;99.90
5461;DHT22;2753;49.196;8.286;2023-03-14T06:14:56;10.70;99.90
5461;DHT22;2753;49.196;8.286;2023-03-14T06:17:21;10.70;99.90
5461;DHT22;2753;49.196;8.286;2023-03-14T06:19:47;10.70;99.90
5461;DHT22;2753;49.196;8.286;2023-03-14T06:22:13;10.60;99.90
5461;DHT22;2753;49.196;8.286;2023-03-14T06:24:38;10.60;99.90
5461;DHT22;2753;49.196;8.286;2023-03-14T06:27:04;10.60;99.90
5461;DHT22;2753;49.196;8.286;2023-03-14T06:29:30;10.60;99.90
5461;DHT22;2753;49.196;8.286;2023-03-14T06:31:56;10.70;99.90
5461;DHT22;2753;49.196;8.286;2023-03-14T06:34:21;10.60;99.90
5461;DHT22;2753;49.196;8.286;2023-03-14T06:36:47;10.60;99.90
5461;DHT22;2753;49.196;8.286;2023-03-14T06:39:13;10.70;99.90
5461;DHT22;2753;49.196;8.286;2023-03-14T06:41:39;10.70;99.90
5461;DHT22;2753;49.196;8.286;2023-03-14T06:44:04;10.70;99.90
5461;DHT22;2753;49.196;8.286;2023-03-14T06:46:30;10.70;99.90
5461;DHT22;2753;49.196;8.286;2023-03-14T06:48:56;10.70;99.90
5461;DHT22;2753;49.196;8.286;2023-03-14T06:51:22;10.70;99.90
5461;DHT22;2753;49.196;8.286;2023-03-14T06:53:47;10.70;99.90
5461;DHT22;2753;49.196;8.286;2023-03-14T06:56:13;10.70;99.90
5461;DHT22;2753;49.196;8.286;2023-03-14T06:58:38;10.70;99.90
5461;DHT22;2753;49.196;8.286;2023-03-14T07:01:04;10.70;99.90
5461;DHT22;2753;49.196;8.286;2023-03-14T07:03:30;10.80;99.90
5461;DHT22;2753;49.196;8.286;2023-03-14T07:05:56;10.80;99.90
5461;DHT22;2753;49.196;8.286;2023-03-14T07:08:22;10.80;99.90
5461;DHT22;2753;49.196;8.286;2023-03-14T07:10:47;10.80;99.90
5461;DHT22;2753;49.196;8.286;2023-03-14T07:13:13;10.80;99.90
5461;DHT22;2753;49.196;8.286;2023-03-14T07:15:39;10.80;99.90
5461;DHT22;2753;49.196;8.286;2023-03-14T07:18:04;10.90;99.90
5461;DHT22;2753;49.196;8.286;2023-03-14T07:20:30;10.90;99.90
5461;DHT22;2753;49.196;8.286;2023-03-14T07:22:57;11.00;99.90
5461;DHT22;2753;49.196;8.286;2023-03-14T07:25:25;11.00;99.90
5461;DHT22;2753;49.196;8.286;2023-03-14T07:27:51;11.10;99.90
5461;DHT22;2753;49.196;8.286;2023-03-14T07:30:17;11.10;99.90
5461;DHT22;2753;49.196;8.286;2023-03-14T07:32:42;11.10;99.90
5461;DHT22;2753;49.196;8.286;2023-03-14T07:35:09;11.10;99.90
5461;DHT22;2753;49.196;8.286;2023-03-14T07:37:34;11.20;99.90
5461;DHT22;2753;49.196;8.286;2023-03-14T07:40:00;11.20;99.90
5461;DHT22;2753;49.196;8.286;2023-03-14T07:42:26;11.20;99.90
5461;DHT22;2753;49.196;8.286;2023-03-14T07:44:51;11.20;99.90
5461;DHT22;2753;49.196;8.286;2023-03-14T07:47:17;11.20;99.90
5461;DHT22;2753;49.196;8.286;2023-03-14T07:49:42;11.20;99.90
5461;DHT22;2753;49.196;8.286;2023-03-14T07:52:08;11.20;99.90
5461;DHT22;2753;49.196;8.286;2023-03-14T07:54:34;11.20;99.90
5461;DHT22;2753;49.196;8.286;2023-03-14T07:57:00;11.20;99.90
5461;DHT22;2753;49.196;8.286;2023-03-14T07:59:26;11.20;99.90
5461;DHT22;2753;49.196;8.286;2023-03-14T08:01:52;11.20;99.90
5461;DHT22;2753;49.196;8.286;2023-03-14T08:04:18;11.30;99.90
5461;DHT22;2753;49.196;8.286;2023-03-14T08:06:43;11.30;99.90
5461;DHT22;2753;49.196;8.286;2023-03-14T08:09:09;11.30;99.90
5461;DHT22;2753;49.196;8.286;2023-03-14T08:11:36;11.30;99.90
5461;DHT22;2753;49.196;8.286;2023-03-14T08:14:01;11.30;99.90
5461;DHT22;2753;49.196;8.286;2023-03-14T08:16:27;11.30;99.90
5461;DHT22;2753;49.196;8.286;2023-03-14T08:18:53;11.30;99.90
5461;DHT22;2753;49.196;8.286;2023-03-14T08:21:18;11.30;99.90
5461;DHT22;2753;49.196;8.286;2023-03-14T08:23:44;11.30;99.90
5461;DHT22;2753;49.196;8.286;2023-03-14T08:26:10;11.40;99.90
5461;DHT22;2753;49.196;8.286;2023-03-14T08:28:36;11.40;99.90
5461;DHT22;2753;49.196;8.286;2023-03-14T08:31:01;11.50;99.90
5461;DHT22;2753;49.196;8.286;2023-03-14T08:33:29;11.40;99.90
5461;DHT22;2753;49.196;8.286;2023-03-14T08:35:56;11.40;99.90
5461;DHT22;2753;49.196;8.286;2023-03-14T08:38:22;11.40;99.90
5461;DHT22;2753;49.196;8.286;2023-03-14T08:40:48;11.40;99.90
5461;DHT22;2753;49.196;8.286;2023-03-14T08:43:15;11.50;99.90
5461;DHT22;2753;49.196;8.286;2023-03-14T08:45:41;11.50;99.90
5461;DHT22;2753;49.196;8.286;2023-03-14T08:48:06;11.60;99.90
5461;DHT22;2753;49.196;8.286;2023-03-14T08:50:33;11.70;99.90
5461;DHT22;2753;49.196;8.286;2023-03-14T08:52:58;11.70;99.90
5461;DHT22;2753;49.196;8.286;2023-03-14T08:55:26;11.60;99.90
5461;DHT22;2753;49.196;8.286;2023-03-14T08:57:52;11.70;99.90
5461;DHT22;2753;49.196;8.286;2023-03-14T09:00:19;11.60;99.90
5461;DHT22;2753;49.196;8.286;2023-03-14T09:02:45;11.60;99.90
5461;DHT22;2753;49.196;8.286;2023-03-14T09:05:11;11.50;99.90
5461;DHT22;2753;49.196;8.286;2023-03-14T09:07:37;11.60;99.90
5461;DHT22;2753;49.196;8.286;2023-03-14T09:10:03;11.60;99.90
5461;DHT22;2753;49.196;8.286;2023-03-14T09:12:29;11.60;99.90
5461;DHT22;2753;49.196;8.286;2023-03-14T09:14:55;11.60;99.90
5461;DHT22;2753;49.196;8.286;2023-03-14T09:17:21;11.70;99.90
5461;DHT22;2753;49.196;8.286;2023-03-14T09:19:47;11.70;99.90
5461;DHT22;2753;49.196;8.286;2023-03-14T09:22:13;11.80;99.90
5461;DHT22;2753;49.196;8.286;2023-03-14T09:24:40;11.80;99.90
5461;DHT22;2753;49.196;8.286;2023-03-14T09:27:05;11.90;99.90
5461;DHT22;2753;49.196;8.286;2023-03-14T09:29:31;11.90;99.90
5461;DHT22;2753;49.196;8.286;2023-03-14T09:31:58;12.00;99.90
5461;DHT22;2753;49.196;8.286;2023-03-14T09:34:24;12.00;99.90
5461;DHT22;2753;49.196;8.286;2023-03-14T09:36:50;12.00;99.90
5461;DHT22;2753;49.196;8.286;2023-03-14T09:39:15;11.90;99.90
5461;DHT22;2753;49.196;8.286;2023-03-14T09:41:48;12.00;99.90
5461;DHT22;2753;49.196;8.286;2023-03-14T09:44:32;12.00;99.90
5461;DHT22;2753;49.196;8.286;2023-03-14T09:47:11;12.00;99.90
5461;DHT22;2753;49.196;8.286;2023-03-14T09:49:39;11.90;99.90
5461;DHT22;2753;49.196;8.286;2023-03-14T09:52:35;11.90;99.90
5461;DHT22;2753;49.196;8.286;2023-03-14T09:55:11;11.80;99.90
5461;DHT22;2753;49.196;8.286;2023-03-14T09:57:39;11.70;99.90
5461;DHT22;2753;49.196;8.286;2023-03-14T10:00:25;11.70;99.90
5461;DHT22;2753;49.196;8.286;2023-03-14T10:02:57;11.70;99.90
5461;DHT22;2753;49.196;8.286;2023-03-14T10:05:26;11.60;99.90
5461;DHT22;2753;49.196;8.286;2023-03-14T10:07:54;11.70;99.90
5461;DHT22;2753;49.196;8.286;2023-03-14T10:10:23;11.70;99.90
5461;DHT22;2753;49.196;8.286;2023-03-14T10:15:37;11.80;99.90
5461;DHT22;2753;49.196;8.286;2023-03-14T10:18:05;11.80;99.90
5461;DHT22;2753;49.196;8.286;2023-03-14T10:20:40;11.80;99.90
5461;DHT22;2753;49.196;8.286;2023-03-14T10:23:22;11.60;99.90
5461;DHT22;2753;49.196;8.286;2023-03-14T10:26:05;11.50;99.90
5461;DHT22;2753;49.196;8.286;2023-03-14T10:31:04;11.60;99.90
5461;DHT22;2753;49.196;8.286;2023-03-14T10:33:32;11.70;99.90
5461;DHT22;2753;49.196;8.286;2023-03-14T10:38:32;11.60;99.90
5461;DHT22;2753;49.196;8.286;2023-03-14T10:40:58;11.50;99.90
5461;DHT22;2753;49.196;8.286;2023-03-14T10:43:35;11.40;99.90
5461;DHT22;2753;49.196;8.286;2023-03-14T10:46:18;11.40;99.90
5461;DHT22;2753;49.196;8.286;2023-03-14T10:48:45;11.40;99.90
5461;DHT22;2753;49.196;8.286;2023-03-14T10:51:19;11.40;99.90
5461;DHT22;2753;49.196;8.286;2023-03-14T10:56:19;11.30;99.90
5461;DHT22;2753;49.196;8.286;2023-03-14T10:58:51;11.30;99.90
5461;DHT22;2753;49.196;8.286;2023-03-14T11:04:13;11.20;99.90
5461;DHT22;2753;49.196;8.286;2023-03-14T11:10:00;11.10;99.90
5461;DHT22;2753;49.196;8.286;2023-03-14T11:15:27;11.20;99.90
5461;DHT22;2753;49.196;8.286;2023-03-14T11:28:37;11.20;99.90
5461;DHT22;2753;49.196;8.286;2023-03-14T11:31:24;11.10;99.90
5461;DHT22;2753;49.196;8.286;2023-03-14T11:36:46;11.10;99.90
5461;DHT22;2753;49.196;8.286;2023-03-14T11:39:16;11.00;99.90
5461;DHT22;2753;49.196;8.286;2023-03-14T11:41:52;11.00;99.90
5461;DHT22;2753;49.196;8.286;2023-03-14T11:44:24;11.00;99.90
5461;DHT22;2753;49.196;8.286;2023-03-14T11:49:35;10.80;99.90
5461;DHT22;2753;49.196;8.286;2023-03-14T11:52:20;10.70;99.90
5461;DHT22;2753;49.196;8.286;2023-03-14T11:54:53;10.70;99.90
5461;DHT22;2753;49.196;8.286;2023-03-14T11:57:22;10.60;99.90
5461;DHT22;2753;49.196;8.286;2023-03-14T12:03:07;10.50;99.90
5461;DHT22;2753;49.196;8.286;2023-03-14T12:10:53;10.30;99.90
5461;DHT22;2753;49.196;8.286;2023-03-14T12:13:20;10.30;99.90
5461;DHT22;2753;49.196;8.286;2023-03-14T12:16:07;10.20;99.90
5461;DHT22;2753;49.196;8.286;2023-03-14T12:18:43;10.20;99.90
5461;DHT22;2753;49.196;8.286;2023-03-14T12:21:11;10.10;99.90
5461;DHT22;2753;49.196;8.286;2023-03-14T12:26:20;10.10;99.90
5461;DHT22;2753;49.196;8.286;2023-03-14T12:29:15;10.20;99.90
5461;DHT22;2753;49.196;8.286;2023-03-14T12:31:47;10.20;99.90
5461;DHT22;2753;49.196;8.286;2023-03-14T12:44:43;10.30;99.90
5461;DHT22;2753;49.196;8.286;2023-03-14T12:49:45;10.40;99.90
5461;DHT22;2753;49.196;8.286;2023-03-14T12:52:22;10.50;99.90
5461;DHT22;2753;49.196;8.286;2023-03-14T12:54:59;10.50;99.90
5461;DHT22;2753;49.196;8.286;2023-03-14T13:00:23;10.60;99.90
5461;DHT22;2753;49.196;8.286;2023-03-14T13:03:19;10.60;99.90
5461;DHT22;2753;49.196;8.286;2023-03-14T13:05:57;10.50;99.50
5461;DHT22;2753;49.196;8.286;2023-03-14T13:08:44;10.50;97.40
5461;DHT22;2753;49.196;8.286;2023-03-14T13:11:21;10.40;96.20
5461;DHT22;2753;49.196;8.286;2023-03-14T13:13:57;10.50;96.20
5461;DHT22;2753;49.196;8.286;2023-03-14T13:16:23;10.50;95.10
5461;DHT22;2753;49.196;8.286;2023-03-14T13:18:58;10.50;94.40
5461;DHT22;2753;49.196;8.286;2023-03-14T13:21:27;10.50;93.30
5461;DHT22;2753;49.196;8.286;2023-03-14T13:24:17;10.50;92.90
5461;DHT22;2753;49.196;8.286;2023-03-14T13:26:44;10.50;94.10
5461;DHT22;2753;49.196;8.286;2023-03-14T13:29:24;10.50;93.10
5461;DHT22;2753;49.196;8.286;2023-03-14T13:31:55;10.50;92.60
5461;DHT22;2753;49.196;8.286;2023-03-14T13:34:26;10.60;92.70
5461;DHT22;2753;49.196;8.286;2023-03-14T13:36:52;10.60;91.90
5461;DHT22;2753;49.196;8.286;2023-03-14T13:39:21;10.60;92.10
5461;DHT22;2753;49.196;8.286;2023-03-14T13:41:52;10.90;92.50
5461;DHT22;2753;49.196;8.286;2023-03-14T13:47:02;10.90;92.30
5461;DHT22;2753;49.196;8.286;2023-03-14T13:49:29;10.80;91.40
5461;DHT22;2753;49.196;8.286;2023-03-14T13:51:58;10.70;90.90
5461;DHT22;2753;49.196;8.286;2023-03-14T13:54:26;10.70;90.50
5461;DHT22;2753;49.196;8.286;2023-03-14T13:57:05;10.70;90.00
5461;DHT22;2753;49.196;8.286;2023-03-14T13:59:33;10.70;88.60
5461;DHT22;2753;49.196;8.286;2023-03-14T14:02:02;10.70;88.90
5461;DHT22;2753;49.196;8.286;2023-03-14T14:04:33;10.90;90.00
5461;DHT22;2753;49.196;8.286;2023-03-14T14:07:05;11.30;90.10
5461;DHT22;2753;49.196;8.286;2023-03-14T14:09:43;11.50;87.90
5461;DHT22;2753;49.196;8.286;2023-03-14T14:12:13;11.60;86.80
5461;DHT22;2753;49.196;8.286;2023-03-14T14:14:43;12.10;84.40
5461;DHT22;2753;49.196;8.286;2023-03-14T14:17:19;12.30;82.30
5461;DHT22;2753;49.196;8.286;2023-03-14T14:19:46;12.80;82.30
5461;DHT22;2753;49.196;8.286;2023-03-14T14:22:13;13.10;79.80
5461;DHT22;2753;49.196;8.286;2023-03-14T14:24:39;13.10;78.50
5461;DHT22;2753;49.196;8.286;2023-03-14T14:27:32;12.90;76.20
5461;DHT22;2753;49.196;8.286;2023-03-14T14:32:48;12.60;77.10
5461;DHT22;2753;49.196;8.286;2023-03-14T14:35:31;12.50;75.60
5461;DHT22;2753;49.196;8.286;2023-03-14T14:37:58;12.30;76.90
5461;DHT22;2753;49.196;8.286;2023-03-14T14:40:26;12.30;76.60
5461;DHT22;2753;49.196;8.286;2023-03-14T14:42:53;12.10;76.30
5461;DHT22;2753;49.196;8.286;2023-03-14T14:45:21;12.10;77.90
5461;DHT22;2753;49.196;8.286;2023-03-14T14:47:53;12.10;80.60
5461;DHT22;2753;49.196;8.286;2023-03-14T14:50:36;12.10;79.90
5461;DHT22;2753;49.196;8.286;2023-03-14T14:53:23;12.00;79.00
5461;DHT22;2753;49.196;8.286;2023-03-14T14:55:51;11.90;78.60
5461;DHT22;2753;49.196;8.286;2023-03-14T15:01:18;11.90;79.50
5461;DHT22;2753;49.196;8.286;2023-03-14T15:03:47;12.00;79.80
5461;DHT22;2753;49.196;8.286;2023-03-14T15:06:15;12.10;79.30
5461;DHT22;2753;49.196;8.286;2023-03-14T15:08:46;12.20;77.30
5461;DHT22;2753;49.196;8.286;2023-03-14T15:11:24;12.10;77.80
5461;DHT22;2753;49.196;8.286;2023-03-14T15:13:51;12.00;78.10
5461;DHT22;2753;49.196;8.286;2023-03-14T15:16:18;11.90;78.30
5461;DHT22;2753;49.196;8.286;2023-03-14T15:18:47;11.90;79.60
5461;DHT22;2753;49.196;8.286;2023-03-14T15:21:15;12.00;79.50
5461;DHT22;2753;49.196;8.286;2023-03-14T15:23:40;12.30;79.60
5461;DHT22;2753;49.196;8.286;2023-03-14T15:26:26;12.40;77.60
5461;DHT22;2753;49.196;8.286;2023-03-14T15:28:52;12.50;77.80
5461;DHT22;2753;49.196;8.286;2023-03-14T15:31:19;12.50;76.50
5461;DHT22;2753;49.196;8.286;2023-03-14T15:33:46;12.50;77.60
5461;DHT22;2753;49.196;8.286;2023-03-14T15:36:26;12.50;77.40
5461;DHT22;2753;49.196;8.286;2023-03-14T15:38:53;12.50;77.70
5461;DHT22;2753;49.196;8.286;2023-03-14T15:41:19;12.30;79.00
5461;DHT22;2753;49.196;8.286;2023-03-14T15:43:45;12.00;79.40
5461;DHT22;2753;49.196;8.286;2023-03-14T15:46:11;11.90;80.30
5461;DHT22;2753;49.196;8.286;2023-03-14T15:48:38;11.70;80.70
5461;DHT22;2753;49.196;8.286;2023-03-14T15:51:03;11.60;81.30
5461;DHT22;2753;49.196;8.286;2023-03-14T15:53:29;11.60;81.70
5461;DHT22;2753;49.196;8.286;2023-03-14T15:55:55;11.50;80.80
5461;DHT22;2753;49.196;8.286;2023-03-14T15:58:21;11.50;81.40
5461;DHT22;2753;49.196;8.286;2023-03-14T16:00:47;11.50;81.90
5461;DHT22;2753;49.196;8.286;2023-03-14T16:03:13;11.40;81.80
5461;DHT22;2753;49.196;8.286;2023-03-14T16:05:39;11.30;81.30
5461;DHT22;2753;49.196;8.286;2023-03-14T16:08:05;11.30;82.10
5461;DHT22;2753;49.196;8.286;2023-03-14T16:10:31;11.30;82.10
5461;DHT22;2753;49.196;8.286;2023-03-14T16:12:57;11.20;82.40
5461;DHT22;2753;49.196;8.286;2023-03-14T16:15:23;11.20;82.50
5461;DHT22;2753;49.196;8.286;2023-03-14T16:17:55;11.10;82.30
5461;DHT22;2753;49.196;8.286;2023-03-14T16:20:21;11.00;81.50
5461;DHT22;2753;49.196;8.286;2023-03-14T16:22:47;11.00;81.60
5461;DHT22;2753;49.196;8.286;2023-03-14T16:25:13;10.90;81.80
5461;DHT22;2753;49.196;8.286;2023-03-14T16:27:39;10.90;83.20
5461;DHT22;2753;49.196;8.286;2023-03-14T16:30:06;10.90;82.80
5461;DHT22;2753;49.196;8.286;2023-03-14T16:32:33;10.80;82.00
5461;DHT22;2753;49.196;8.286;2023-03-14T16:34:59;10.70;82.30
5461;DHT22;2753;49.196;8.286;2023-03-14T16:37:24;10.60;82.90
5461;DHT22;2753;49.196;8.286;2023-03-14T16:39:52;10.50;83.80
5461;DHT22;2753;49.196;8.286;2023-03-14T16:42:20;10.50;84.40
5461;DHT22;2753;49.196;8.286;2023-03-14T16:44:46;10.40;85.00
5461;DHT22;2753;49.196;8.286;2023-03-14T16:47:12;10.40;85.50
5461;DHT22;2753;49.196;8.286;2023-03-14T16:49:37;10.40;86.00
5461;DHT22;2753;49.196;8.286;2023-03-14T16:52:04;10.40;86.30
5461;DHT22;2753;49.196;8.286;2023-03-14T16:54:30;10.30;86.90
5461;DHT22;2753;49.196;8.286;2023-03-14T16:56:56;10.30;86.70
5461;DHT22;2753;49.196;8.286;2023-03-14T16:59:22;10.20;87.30
5461;DHT22;2753;49.196;8.286;2023-03-14T17:01:49;10.20;87.70
5461;DHT22;2753;49.196;8.286;2023-03-14T17:04:15;10.10;88.40
5461;DHT22;2753;49.196;8.286;2023-03-14T17:06:41;10.10;88.60
5461;DHT22;2753;49.196;8.286;2023-03-14T17:09:08;10.10;89.00
5461;DHT22;2753;49.196;8.286;2023-03-14T17:11:34;10.10;89.20
5461;DHT22;2753;49.196;8.286;2023-03-14T17:14:00;10.10;89.30
5461;DHT22;2753;49.196;8.286;2023-03-14T17:16:26;10.00;89.60
5461;DHT22;2753;49.196;8.286;2023-03-14T17:18:52;10.00;89.90
5461;DHT22;2753;49.196;8.286;2023-03-14T17:21:19;9.90;90.60
5461;DHT22;2753;49.196;8.286;2023-03-14T17:23:44;10.00;90.30
5461;DHT22;2753;49.196;8.286;2023-03-14T17:26:10;9.90;91.00
5461;DHT22;2753;49.196;8.286;2023-03-14T17:28:37;9.80;91.00
5461;DHT22;2753;49.196;8.286;2023-03-14T17:31:22;9.70;91.00
5461;DHT22;2753;49.196;8.286;2023-03-14T17:33:48;9.70;91.20
5461;DHT22;2753;49.196;8.286;2023-03-14T17:36:19;9.60;91.30
5461;DHT22;2753;49.196;8.286;2023-03-14T17:38:49;9.70;91.50